Latest Coastal Weather Observations for Double Island Point

IDQ60701

Issued at 8:21 pm EST Tuesday 28 July 2015 (issued every 10 minutes, with the page automatically refreshed every 10 minutes)

About coastal observations | Map of coastal stations | Coastal observations for QLD | Marine services | Other Formats
Station Details ID: 040068 Name: DOUBLE ISLAND POINT LIGHTHOUSE Lat: -25.93 Lon: 153.19 Height: 95.64 m
Data from the previous 72 hours. | See also: Recent months at Double Island Point
Date/Time
EST
Temp

°C
Wind Pressure Rain
since 9am
mm
Weather Cloud Vis
km
Sea
Height
m
Swell
Dir
 
Speed
knots
Gust
knots
hPa Trend Height
m
Period
s
Dir
28/08:00pm 17.3 SE 22 26 1029.1 - 0.0 - - - - - - -
28/07:30pm 17.3 SE 22 26 1028.8 - 0.0 - - - - - - -
28/07:00pm 17.3 SE 23 26 1028.5 - 0.0 - - - - - - -
28/06:30pm 17.3 SE 21 25 1028.2 - 0.0 - - - - - - -
28/06:00pm 17.2 SE 23 26 1027.7 - 0.0 - - - - - - -
28/05:30pm 17.2 SE 22 25 1027.5 - 0.0 - - - - - - -
28/05:00pm 17.3 SE 24 27 1027.3 - 0.0 - - - - - - -
28/04:30pm 17.3 SE 25 29 1026.9 - 0.0 - - - - - - -
28/04:00pm 17.6 SE 26 29 1026.7 - 0.0 - - - - - - -
28/03:30pm 17.7 SE 24 28 1026.6 - 0.0 - - - - - - -
28/03:00pm 18.0 SE 22 25 1026.5 - 0.0 - - - - - - -
28/02:30pm 18.1 SE 23 28 1026.6 - 0.0 - - - - - - -
28/02:00pm 18.3 SE 22 26 1026.5 - 0.0 - - - - - - -
28/01:46pm 19.0 SE 20 25 1026.7 - 0.0 - - - - - - -
28/01:30pm 17.9 SSE 23 30 1026.5 - 0.0 - - - - - - -
28/01:00pm 17.6 SSE 23 28 1026.9 - 0.0 - - - - - - -
28/12:30pm 17.6 SSE 24 30 1026.9 - 0.0 - - - - - - -
28/12:00pm 17.6 SSE 23 29 1027.2 - 0.0 - - - - - - -
28/11:30am 17.1 SSE 23 28 1027.5 - 0.0 - - - - - - -
28/11:00am 17.0 SSE 23 29 1027.8 - 0.0 - - - - - - -
28/10:30am 16.7 SSE 24 29 1027.9 - 0.0 - - - - - - -
28/10:00am 16.7 SSE 23 30 1028.0 - 0.0 - - - - - - -
28/09:30am 16.0 SSE 24 31 1027.8 - 0.0 - - - - - - -
28/09:00am 16.3 SSE 25 31 1027.6 - 0.2 - - - - - - -
28/08:30am 16.2 SSE 22 27 1027.4 - 0.2 - - - - - - -
28/08:00am 15.9 SSE 22 29 1027.0 - 0.2 - - - - - - -
28/07:30am 16.5 SSE 23 28 1026.7 - 0.2 - - - - - - -
28/07:00am 15.5 S 17 23 1026.7 - 0.2 - - - - - - -
28/06:30am 14.9 S 18 23 1026.3 - 0.2 - - - - - - -
28/06:00am 15.0 S 21 28 1026.0 - 0.2 - - - - - - -
28/05:30am 14.9 S 21 27 1025.7 - 0.2 - - - - - - -
28/05:00am 14.9 S 21 28 1025.3 - 0.2 - - - - - - -
28/04:30am 15.0 S 22 28 1025.2 - 0.2 - - - - - - -
28/04:00am 15.1 S 20 27 1024.9 - 0.2 - - - - - - -
28/03:30am 14.8 S 16 20 1024.9 - 0.2 - - - - - - -
28/03:00am 14.7 S 16 20 1024.8 - 0.2 - - - - - - -
28/02:30am 14.8 S 17 21 1024.7 - 0.2 - - - - - - -
28/02:00am 14.6 S 17 21 1024.8 - 0.2 - - - - - - -
28/01:30am 14.4 SSW 17 20 1024.9 - 0.2 - - - - - - -
28/01:00am 14.6 SSW 16 19 1025.3 - 0.2 - - - - - - -
28/12:30am 15.1 S 17 20 1025.2 - 0.2 - - - - - - -
28/12:00am 15.5 SSW 17 20 1025.1 - 0.2 - - - - - - -
 
Date/Time
EST
Temp

°C
Wind Pressure Rain
since 9am
mm
Weather Cloud Vis
km
Sea
Height
m
Swell
Dir
 
Speed
knots
Gust
knots
hPa Trend Height
m
Period
s
Dir
27/11:30pm 15.9 S 17 21 1025.1 - 0.2 - - - - - - -
27/11:00pm 16.3 S 17 21 1025.2 - 0.2 - - - - - - -
27/10:30pm 17.0 SSW 16 19 1025.2 - 0.2 - - - - - - -
27/10:00pm 17.2 SSW 15 18 1025.2 - 0.2 - - - - - - -
27/09:30pm 16.7 SSW 12 16 1025.1 - 0.2 - - - - - - -
27/09:00pm 17.2 SSW 13 15 1025.0 - 0.2 - - - - - - -
27/08:30pm 18.0 SSW 13 15 1024.8 - 0.2 - - - - - - -
27/08:00pm 17.9 SSW 13 16 1024.7 - 0.2 - - - - - - -
27/07:30pm 18.2 SSW 14 16 1024.3 - 0.2 - - - - - - -
27/07:00pm 18.3 SSW 15 17 1023.9 - 0.2 - - - - - - -
27/06:30pm 18.6 S 12 15 1023.5 - 0.2 - - - - - - -
27/06:00pm 19.8 SSE 15 17 1023.0 - 0.2 - - - - - - -
27/05:30pm 19.3 SSE 14 18 1022.6 - 0.2 - - - - - - -
27/05:00pm 19.3 SSE 13 15 1022.2 - 0.2 - - - - - - -
27/04:30pm 19.2 SSE 11 14 1021.8 - 0.2 - - - - - - -
27/04:00pm 19.3 SSE 11 13 1021.6 - 0.2 - - - - - - -
27/03:30pm 19.4 SSE 11 13 1021.4 - 0.2 - - - - - - -
27/03:00pm 19.7 SE 10 12 1021.3 - 0.2 - - - - - - -
27/02:30pm 20.3 SSE 9 11 1021.3 - 0.2 - - - - - - -
27/02:00pm 20.1 SSE 9 11 1021.6 - 0.2 - - - - - - -
27/01:30pm 20.0 SSE 11 12 1021.8 - 0.2 - - - - - - -
27/01:00pm 20.4 SSE 9 11 1022.0 - 0.2 - - - - - - -
27/12:30pm 20.1 SSE 9 11 1022.3 - 0.2 - - - - - - -
27/12:00pm 20.0 S 10 13 1022.8 - 0.2 - - - - - - -
27/11:30am 19.9 SSE 10 13 1023.2 - 0.2 - - - - - - -
27/11:00am 19.4 S 12 16 1023.7 - 0.2 - - - - - - -
27/10:30am 19.4 SSE 10 12 1024.0 - 0.2 - - - - - - -
27/10:00am 19.0 S 12 15 1024.2 - 0.0 - - - - - - -
27/09:30am 18.7 S 14 18 1024.3 - 0.0 - - - - - - -
27/09:00am 18.7 SSW 10 15 1024.3 - 0.0 - - - - - - -
27/08:30am 18.6 SSW 12 16 1024.2 - 0.0 - - - - - - -
27/08:00am 18.2 SSW 13 17 1023.8 - 0.0 - - - - - - -
27/07:30am 17.9 SSW 13 18 1023.6 - 0.0 - - - - - - -
27/07:00am 18.1 SW 13 16 1023.2 - 0.0 - - - - - - -
27/06:30am 18.1 SSW 14 20 1022.9 - 0.0 - - - - - - -
27/06:00am 18.4 SSW 11 15 1022.6 - 0.0 - - - - - - -
27/05:30am 18.2 SSW 9 14 1022.3 - 0.0 - - - - - - -
27/05:00am 18.0 SSW 8 11 1021.9 - 0.0 - - - - - - -
27/04:30am 19.0 SSE 2 5 1021.5 - 0.0 - - - - - - -
27/04:00am 19.3 CALM 0 0 1021.4 - 0.0 - - - - - - -
27/03:30am 19.1 SE 4 5 1021.4 - 0.0 - - - - - - -
27/03:00am 19.1 SE 2 3 1021.1 - 0.0 - - - - - - -
27/02:30am 19.2 WSW 2 5 1021.2 - 0.0 - - - - - - -
27/02:00am 19.3 W 6 7 1021.1 - 0.0 - - - - - - -
27/01:30am 19.3 WNW 9 12 1020.9 - 0.0 - - - - - - -
27/01:00am 19.5 NW 9 11 1021.1 - 0.0 - - - - - - -
27/12:30am 19.5 WNW 9 12 1021.2 - 0.0 - - - - - - -
27/12:00am 19.6 NW 11 13 1021.3 - 0.0 - - - - - - -
 
Date/Time
EST
Temp

°C
Wind Pressure Rain
since 9am
mm
Weather Cloud Vis
km
Sea
Height
m
Swell
Dir
 
Speed
knots
Gust
knots
hPa Trend Height
m
Period
s
Dir
26/11:30pm 19.7 WNW 12 15 1021.3 - 0.0 - - - - - - -
26/11:00pm 19.8 NW 12 16 1021.6 - 0.0 - - - - - - -
26/10:30pm 19.8 WNW 11 14 1021.5 - 0.0 - - - - - - -
26/10:00pm 19.8 NW 13 17 1021.4 - 0.0 - - - - - - -
26/09:30pm 20.0 NW 13 17 1021.2 - 0.0 - - - - - - -
26/09:00pm 20.0 NW 15 20 1021.1 - 0.0 - - - - - - -
26/08:30pm 19.8 NW 15 17 1020.6 - 0.0 - - - - - - -
26/08:00pm 20.0 NW 13 16 1020.6 - 0.0 - - - - - - -
26/07:30pm 20.4 WSW 6 12 1020.5 - 0.0 - - - - - - -
26/07:00pm 20.4 W 9 13 1019.9 - 0.0 - - - - - - -
26/06:30pm 20.3 NNW 16 19 1018.7 - 0.0 - - - - - - -
26/06:00pm 20.5 NNW 13 17 1018.3 - 0.0 - - - - - - -
26/05:30pm 20.9 N 6 7 1017.9 - 0.0 - - - - - - -
26/05:00pm 21.8 N 6 7 1017.5 - 0.0 - - - - - - -
26/04:30pm 22.9 N 5 6 1017.2 - 0.0 - - - - - - -
26/04:00pm 23.3 N 4 5 1017.1 - 0.0 - - - - - - -
26/03:30pm 22.8 N 7 12 1016.9 - 0.0 - - - - - - -
26/03:00pm 23.7 N 6 13 1017.1 - 0.0 - - - - - - -
26/02:30pm 24.3 N 5 10 1017.2 - 0.0 - - - - - - -
26/02:00pm 25.2 NNW 3 8 1017.5 - 0.0 - - - - - - -
26/01:30pm 25.0 N 4 7 1018.0 - 0.0 - - - - - - -
26/01:00pm 25.0 N 3 6 1018.4 - 0.0 - - - - - - -
26/12:30pm 25.3 N 4 7 1018.8 - 0.0 - - - - - - -
26/12:00pm 24.8 NNW 7 10 1019.2 - 0.0 - - - - - - -
26/11:30am 22.9 NNW 11 15 1019.6 - 0.0 - - - - - - -
26/11:00am 22.2 NNW 14 18 1020.1 - 0.0 - - - - - - -
26/10:30am 21.7 NW 13 16 1020.7 - 0.0 - - - - - - -
26/10:00am 20.9 NW 11 15 1021.4 - 0.0 - - - - - - -
26/09:30am 20.8 NNW 9 11 1021.8 - 0.0 - - - - - - -
26/09:00am 20.3 NW 8 12 1022.0 - 0.0 - - - - - - -
26/08:30am 20.1 NNW 9 11 1021.6 - 0.0 - - - - - - -
26/08:00am 18.7 NW 11 13 1021.5 - 0.0 - - - - - - -
26/07:30am 18.2 NNW 11 12 1021.4 - 0.0 - - - - - - -
26/07:00am 17.3 NW 8 10 1021.4 - 0.0 - - - - - - -
26/06:30am 16.9 NW 11 13 1021.2 - 0.0 - - - - - - -
26/06:00am 17.0 NW 12 13 1021.1 - 0.0 - - - - - - -
26/05:30am 17.1 NW 10 11 1020.8 - 0.0 - - - - - - -
26/05:00am 17.3 NW 10 12 1020.7 - 0.0 - - - - - - -
26/04:30am 17.5 NW 12 14 1020.6 - 0.0 - - - - - - -
26/04:00am 17.7 NW 11 14 1020.6 - 0.0 - - - - - - -
26/03:30am 17.5 WNW 13 16 1020.6 - 0.0 - - - - - - -
26/03:00am 17.6 NW 14 16 1020.7 - 0.0 - - - - - - -
26/02:30am 18.1 NW 13 16 1020.9 - 0.0 - - - - - - -
26/02:00am 17.5 WNW 12 14 1021.2 - 0.0 - - - - - - -
26/01:30am 17.8 NW 13 15 1021.0 - 0.0 - - - - - - -
26/01:00am 17.9 WNW 13 14 1021.3 - 0.0 - - - - - - -
26/12:30am 17.9 WNW 12 14 1021.4 - 0.0 - - - - - - -
26/12:00am 18.0 NW 12 13 1021.5 - 0.0 - - - - - - -
 
Date/Time
EST
Temp

°C
Wind Pressure Rain
since 9am
mm
Weather Cloud Vis
km
Sea
Height
m
Swell
Dir
 
Speed
knots
Gust
knots
hPa Trend Height
m
Period
s
Dir
25/11:30pm 18.2 NW 11 14 1021.5 - 0.0 - - - - - - -
25/11:00pm 18.4 WNW 11 13 1021.9 - 0.0 - - - - - - -
25/10:30pm 18.5 NW 12 15 1021.9 - 0.0 - - - - - - -
25/10:00pm 19.0 WNW 13 14 1021.7 - 0.0 - - - - - - -
25/09:30pm 19.3 NW 9 11 1021.6 - 0.0 - - - - - - -
25/09:00pm 19.5 NW 10 11 1021.4 - 0.0 - - - - - - -
25/08:30pm 19.4 NNW 11 11 1021.6 - 0.0 - - - - - - -

Other Formats:

Comma delimited format used in spreadsheet applications
http://www.bom.gov.au/fwo/IDQ60701/IDQ60701.94584.axf

JavaScript Object Notation format (JSON) in row-major order
http://www.bom.gov.au/fwo/IDQ60701/IDQ60701.94584.json